sensor_id;sensor_type;location;lat;lon;timestamp;P1;durP1;ratioP1;P2;durP2;ratioP2
51981;SDS011;37998;53.416;6.730;2022-12-18T00:02:15;77.43;;;35.47;;
51981;SDS011;37998;53.416;6.730;2022-12-18T00:04:40;79.90;;;35.30;;
51981;SDS011;37998;53.416;6.730;2022-12-18T00:07:06;72.55;;;34.55;;
51981;SDS011;37998;53.416;6.730;2022-12-18T00:09:32;82.75;;;37.20;;
51981;SDS011;37998;53.416;6.730;2022-12-18T00:11:58;86.72;;;36.40;;
51981;SDS011;37998;53.416;6.730;2022-12-18T00:14:23;78.78;;;33.67;;
51981;SDS011;37998;53.416;6.730;2022-12-18T00:16:49;82.72;;;34.75;;
51981;SDS011;37998;53.416;6.730;2022-12-18T00:19:14;77.70;;;35.17;;
51981;SDS011;37998;53.416;6.730;2022-12-18T00:21:41;83.22;;;35.80;;
51981;SDS011;37998;53.416;6.730;2022-12-18T00:24:08;77.57;;;33.33;;
51981;SDS011;37998;53.416;6.730;2022-12-18T00:26:35;78.63;;;35.88;;
51981;SDS011;37998;53.416;6.730;2022-12-18T00:29:06;89.57;;;35.75;;
51981;SDS011;37998;53.416;6.730;2022-12-18T00:31:35;80.53;;;36.97;;
51981;SDS011;37998;53.416;6.730;2022-12-18T00:34:00;79.38;;;35.42;;
51981;SDS011;37998;53.416;6.730;2022-12-18T00:36:27;78.32;;;34.92;;
51981;SDS011;37998;53.416;6.730;2022-12-18T00:38:55;89.78;;;37.85;;
51981;SDS011;37998;53.416;6.730;2022-12-18T00:41:22;85.05;;;35.55;;
51981;SDS011;37998;53.416;6.730;2022-12-18T00:44:09;83.97;;;35.83;;
51981;SDS011;37998;53.416;6.730;2022-12-18T00:46:36;79.93;;;36.53;;
51981;SDS011;37998;53.416;6.730;2022-12-18T00:49:02;77.35;;;34.95;;
51981;SDS011;37998;53.416;6.730;2022-12-18T00:51:28;89.20;;;36.58;;
51981;SDS011;37998;53.416;6.730;2022-12-18T00:53:54;80.07;;;35.67;;
51981;SDS011;37998;53.416;6.730;2022-12-18T00:56:20;82.63;;;35.78;;
51981;SDS011;37998;53.416;6.730;2022-12-18T00:58:45;74.47;;;33.40;;
51981;SDS011;37998;53.416;6.730;2022-12-18T01:01:11;83.10;;;36.85;;
51981;SDS011;37998;53.416;6.730;2022-12-18T01:03:36;76.32;;;35.03;;
51981;SDS011;37998;53.416;6.730;2022-12-18T01:06:06;83.40;;;34.72;;
51981;SDS011;37998;53.416;6.730;2022-12-18T01:08:33;74.13;;;34.45;;
51981;SDS011;37998;53.416;6.730;2022-12-18T01:11:00;74.40;;;34.63;;
51981;SDS011;37998;53.416;6.730;2022-12-18T01:13:26;81.78;;;32.85;;
51981;SDS011;37998;53.416;6.730;2022-12-18T01:15:52;81.50;;;35.20;;
51981;SDS011;37998;53.416;6.730;2022-12-18T01:18:17;87.38;;;35.00;;
51981;SDS011;37998;53.416;6.730;2022-12-18T01:20:43;78.97;;;33.90;;
51981;SDS011;37998;53.416;6.730;2022-12-18T01:23:09;72.32;;;32.28;;
51981;SDS011;37998;53.416;6.730;2022-12-18T01:25:37;74.65;;;33.05;;
51981;SDS011;37998;53.416;6.730;2022-12-18T01:28:03;79.72;;;33.88;;
51981;SDS011;37998;53.416;6.730;2022-12-18T01:30:29;69.25;;;32.97;;
51981;SDS011;37998;53.416;6.730;2022-12-18T01:32:54;77.43;;;33.83;;
51981;SDS011;37998;53.416;6.730;2022-12-18T01:35:20;72.47;;;31.73;;
51981;SDS011;37998;53.416;6.730;2022-12-18T01:37:45;78.68;;;35.67;;
51981;SDS011;37998;53.416;6.730;2022-12-18T01:40:11;71.30;;;32.08;;
51981;SDS011;37998;53.416;6.730;2022-12-18T01:42:37;70.65;;;32.38;;
51981;SDS011;37998;53.416;6.730;2022-12-18T01:45:20;73.00;;;32.63;;
51981;SDS011;37998;53.416;6.730;2022-12-18T01:50:43;78.45;;;34.47;;
51981;SDS011;37998;53.416;6.730;2022-12-18T01:55:57;76.03;;;34.03;;
51981;SDS011;37998;53.416;6.730;2022-12-18T02:01:21;67.22;;;31.63;;
51981;SDS011;37998;53.416;6.730;2022-12-18T02:03:48;73.90;;;33.10;;
51981;SDS011;37998;53.416;6.730;2022-12-18T02:06:24;69.47;;;32.17;;
51981;SDS011;37998;53.416;6.730;2022-12-18T02:25:40;74.18;;;32.97;;
51981;SDS011;37998;53.416;6.730;2022-12-18T02:28:34;75.07;;;33.92;;
51981;SDS011;37998;53.416;6.730;2022-12-18T02:31:16;82.45;;;35.83;;
51981;SDS011;37998;53.416;6.730;2022-12-18T02:33:46;83.80;;;34.72;;
51981;SDS011;37998;53.416;6.730;2022-12-18T02:36:15;76.15;;;33.28;;
51981;SDS011;37998;53.416;6.730;2022-12-18T02:38:42;71.70;;;32.40;;
51981;SDS011;37998;53.416;6.730;2022-12-18T02:41:09;77.10;;;34.05;;
51981;SDS011;37998;53.416;6.730;2022-12-18T02:43:36;72.68;;;31.90;;
51981;SDS011;37998;53.416;6.730;2022-12-18T02:46:20;75.95;;;34.08;;
51981;SDS011;37998;53.416;6.730;2022-12-18T02:48:55;80.53;;;35.05;;
51981;SDS011;37998;53.416;6.730;2022-12-18T02:51:29;72.75;;;33.38;;
51981;SDS011;37998;53.416;6.730;2022-12-18T02:57:19;75.57;;;33.25;;
51981;SDS011;37998;53.416;6.730;2022-12-18T03:00:00;76.32;;;33.58;;
51981;SDS011;37998;53.416;6.730;2022-12-18T03:08:03;78.95;;;33.75;;
51981;SDS011;37998;53.416;6.730;2022-12-18T03:10:31;76.68;;;32.70;;
51981;SDS011;37998;53.416;6.730;2022-12-18T03:13:02;68.70;;;32.90;;
51981;SDS011;37998;53.416;6.730;2022-12-18T03:15:37;80.15;;;35.67;;
51981;SDS011;37998;53.416;6.730;2022-12-18T03:18:10;79.47;;;35.72;;
51981;SDS011;37998;53.416;6.730;2022-12-18T03:20:42;76.05;;;34.20;;
51981;SDS011;37998;53.416;6.730;2022-12-18T03:23:12;81.57;;;36.35;;
51981;SDS011;37998;53.416;6.730;2022-12-18T03:25:42;72.60;;;34.25;;
51981;SDS011;37998;53.416;6.730;2022-12-18T03:28:12;75.90;;;35.53;;
51981;SDS011;37998;53.416;6.730;2022-12-18T03:30:41;87.65;;;35.03;;
51981;SDS011;37998;53.416;6.730;2022-12-18T03:33:16;74.10;;;33.83;;
51981;SDS011;37998;53.416;6.730;2022-12-18T03:35:46;74.97;;;32.78;;
51981;SDS011;37998;53.416;6.730;2022-12-18T03:38:13;79.07;;;35.25;;
51981;SDS011;37998;53.416;6.730;2022-12-18T03:43:09;79.70;;;35.20;;
51981;SDS011;37998;53.416;6.730;2022-12-18T03:45:42;80.22;;;36.28;;
51981;SDS011;37998;53.416;6.730;2022-12-18T03:50:59;83.20;;;34.92;;
51981;SDS011;37998;53.416;6.730;2022-12-18T03:56:09;87.15;;;35.35;;
51981;SDS011;37998;53.416;6.730;2022-12-18T03:58:37;85.70;;;36.33;;
51981;SDS011;37998;53.416;6.730;2022-12-18T04:01:05;82.97;;;35.70;;
51981;SDS011;37998;53.416;6.730;2022-12-18T04:03:33;82.28;;;35.47;;
51981;SDS011;37998;53.416;6.730;2022-12-18T04:06:00;85.65;;;36.70;;
51981;SDS011;37998;53.416;6.730;2022-12-18T04:08:27;78.38;;;35.63;;
51981;SDS011;37998;53.416;6.730;2022-12-18T04:10:53;87.40;;;37.47;;
51981;SDS011;37998;53.416;6.730;2022-12-18T04:13:29;83.22;;;36.50;;
51981;SDS011;37998;53.416;6.730;2022-12-18T04:15:58;83.10;;;36.13;;
51981;SDS011;37998;53.416;6.730;2022-12-18T04:18:23;75.85;;;36.80;;
51981;SDS011;37998;53.416;6.730;2022-12-18T04:20:49;85.63;;;37.50;;
51981;SDS011;37998;53.416;6.730;2022-12-18T04:23:15;77.65;;;36.08;;
51981;SDS011;37998;53.416;6.730;2022-12-18T04:25:40;84.32;;;36.10;;
51981;SDS011;37998;53.416;6.730;2022-12-18T04:28:06;83.05;;;36.90;;
51981;SDS011;37998;53.416;6.730;2022-12-18T04:30:32;79.00;;;36.58;;
51981;SDS011;37998;53.416;6.730;2022-12-18T04:32:57;80.53;;;33.22;;
51981;SDS011;37998;53.416;6.730;2022-12-18T04:35:23;75.65;;;34.60;;
51981;SDS011;37998;53.416;6.730;2022-12-18T04:37:49;84.88;;;36.35;;
51981;SDS011;37998;53.416;6.730;2022-12-18T04:40:14;80.72;;;35.10;;
51981;SDS011;37998;53.416;6.730;2022-12-18T04:42:40;81.82;;;35.58;;
51981;SDS011;37998;53.416;6.730;2022-12-18T04:45:06;75.18;;;35.75;;
51981;SDS011;37998;53.416;6.730;2022-12-18T04:47:32;80.60;;;35.45;;
51981;SDS011;37998;53.416;6.730;2022-12-18T04:49:58;77.40;;;35.92;;
51981;SDS011;37998;53.416;6.730;2022-12-18T04:52:23;80.55;;;34.67;;
51981;SDS011;37998;53.416;6.730;2022-12-18T04:54:49;80.40;;;34.95;;
51981;SDS011;37998;53.416;6.730;2022-12-18T04:57:15;75.43;;;33.65;;
51981;SDS011;37998;53.416;6.730;2022-12-18T04:59:40;77.80;;;33.75;;
51981;SDS011;37998;53.416;6.730;2022-12-18T05:02:06;75.18;;;33.38;;
51981;SDS011;37998;53.416;6.730;2022-12-18T05:04:32;79.22;;;34.78;;
51981;SDS011;37998;53.416;6.730;2022-12-18T05:06:57;74.30;;;35.08;;
51981;SDS011;37998;53.416;6.730;2022-12-18T05:09:23;78.47;;;36.00;;
51981;SDS011;37998;53.416;6.730;2022-12-18T05:11:48;76.50;;;36.30;;
51981;SDS011;37998;53.416;6.730;2022-12-18T05:14:14;89.72;;;36.83;;
51981;SDS011;37998;53.416;6.730;2022-12-18T05:16:40;76.65;;;35.40;;
51981;SDS011;37998;53.416;6.730;2022-12-18T05:19:06;74.55;;;35.35;;
51981;SDS011;37998;53.416;6.730;2022-12-18T05:21:31;77.13;;;35.72;;
51981;SDS011;37998;53.416;6.730;2022-12-18T05:23:57;75.70;;;35.08;;
51981;SDS011;37998;53.416;6.730;2022-12-18T05:26:23;74.22;;;33.10;;
51981;SDS011;37998;53.416;6.730;2022-12-18T05:28:48;71.55;;;33.78;;
51981;SDS011;37998;53.416;6.730;2022-12-18T05:31:14;73.03;;;34.67;;
51981;SDS011;37998;53.416;6.730;2022-12-18T05:33:39;81.80;;;35.38;;
51981;SDS011;37998;53.416;6.730;2022-12-18T05:36:06;70.32;;;34.20;;
51981;SDS011;37998;53.416;6.730;2022-12-18T05:38:34;75.03;;;33.08;;
51981;SDS011;37998;53.416;6.730;2022-12-18T05:41:00;73.72;;;33.95;;
51981;SDS011;37998;53.416;6.730;2022-12-18T05:43:27;69.18;;;33.63;;
51981;SDS011;37998;53.416;6.730;2022-12-18T05:45:54;77.22;;;33.58;;
51981;SDS011;37998;53.416;6.730;2022-12-18T05:48:20;84.13;;;34.80;;
51981;SDS011;37998;53.416;6.730;2022-12-18T05:50:46;73.57;;;31.83;;
51981;SDS011;37998;53.416;6.730;2022-12-18T05:53:13;71.93;;;33.80;;
51981;SDS011;37998;53.416;6.730;2022-12-18T05:55:41;70.93;;;32.95;;
51981;SDS011;37998;53.416;6.730;2022-12-18T05:58:08;65.00;;;31.70;;
51981;SDS011;37998;53.416;6.730;2022-12-18T06:00:36;74.07;;;32.15;;
51981;SDS011;37998;53.416;6.730;2022-12-18T06:03:07;69.43;;;31.52;;
51981;SDS011;37998;53.416;6.730;2022-12-18T06:05:37;75.57;;;33.03;;
51981;SDS011;37998;53.416;6.730;2022-12-18T06:08:04;69.32;;;32.03;;
51981;SDS011;37998;53.416;6.730;2022-12-18T06:10:30;65.10;;;28.65;;
51981;SDS011;37998;53.416;6.730;2022-12-18T06:12:56;68.60;;;30.85;;
51981;SDS011;37998;53.416;6.730;2022-12-18T06:15:21;66.15;;;29.48;;
51981;SDS011;37998;53.416;6.730;2022-12-18T06:17:47;67.30;;;29.52;;
51981;SDS011;37998;53.416;6.730;2022-12-18T06:20:13;56.95;;;27.13;;
51981;SDS011;37998;53.416;6.730;2022-12-18T06:22:38;58.72;;;28.38;;
51981;SDS011;37998;53.416;6.730;2022-12-18T06:25:04;60.85;;;29.05;;
51981;SDS011;37998;53.416;6.730;2022-12-18T06:27:31;66.05;;;29.13;;
51981;SDS011;37998;53.416;6.730;2022-12-18T06:29:58;61.80;;;28.40;;
51981;SDS011;37998;53.416;6.730;2022-12-18T06:32:24;58.90;;;28.83;;
51981;SDS011;37998;53.416;6.730;2022-12-18T06:34:50;54.63;;;26.55;;
51981;SDS011;37998;53.416;6.730;2022-12-18T06:37:16;50.67;;;25.83;;
51981;SDS011;37998;53.416;6.730;2022-12-18T06:39:41;56.28;;;27.77;;
51981;SDS011;37998;53.416;6.730;2022-12-18T06:42:07;53.60;;;26.90;;
51981;SDS011;37998;53.416;6.730;2022-12-18T06:44:32;53.05;;;25.80;;
51981;SDS011;37998;53.416;6.730;2022-12-18T06:46:58;58.22;;;26.80;;
51981;SDS011;37998;53.416;6.730;2022-12-18T06:49:24;51.95;;;26.02;;
51981;SDS011;37998;53.416;6.730;2022-12-18T06:51:50;49.55;;;25.75;;
51981;SDS011;37998;53.416;6.730;2022-12-18T06:54:15;49.42;;;25.40;;
51981;SDS011;37998;53.416;6.730;2022-12-18T06:56:41;47.88;;;25.13;;
51981;SDS011;37998;53.416;6.730;2022-12-18T06:59:07;50.63;;;25.73;;
51981;SDS011;37998;53.416;6.730;2022-12-18T07:01:32;50.53;;;24.55;;
51981;SDS011;37998;53.416;6.730;2022-12-18T07:03:58;46.53;;;25.90;;
51981;SDS011;37998;53.416;6.730;2022-12-18T07:06:24;45.75;;;24.50;;
51981;SDS011;37998;53.416;6.730;2022-12-18T07:08:51;49.10;;;24.75;;
51981;SDS011;37998;53.416;6.730;2022-12-18T07:11:18;52.63;;;24.27;;
51981;SDS011;37998;53.416;6.730;2022-12-18T07:13:44;43.35;;;22.60;;
51981;SDS011;37998;53.416;6.730;2022-12-18T07:16:12;46.20;;;24.27;;
51981;SDS011;37998;53.416;6.730;2022-12-18T07:18:39;48.65;;;24.15;;
51981;SDS011;37998;53.416;6.730;2022-12-18T07:21:05;42.53;;;21.88;;
51981;SDS011;37998;53.416;6.730;2022-12-18T07:23:32;42.85;;;23.35;;
51981;SDS011;37998;53.416;6.730;2022-12-18T07:26:05;41.15;;;21.92;;
51981;SDS011;37998;53.416;6.730;2022-12-18T07:28:34;39.72;;;22.10;;
51981;SDS011;37998;53.416;6.730;2022-12-18T07:31:08;40.47;;;21.20;;
51981;SDS011;37998;53.416;6.730;2022-12-18T07:33:36;43.70;;;21.83;;
51981;SDS011;37998;53.416;6.730;2022-12-18T07:36:02;38.55;;;21.95;;
51981;SDS011;37998;53.416;6.730;2022-12-18T07:38:30;38.35;;;20.35;;
51981;SDS011;37998;53.416;6.730;2022-12-18T07:41:02;39.63;;;21.77;;
51981;SDS011;37998;53.416;6.730;2022-12-18T07:43:28;42.72;;;21.58;;
51981;SDS011;37998;53.416;6.730;2022-12-18T07:45:54;38.30;;;20.50;;
51981;SDS011;37998;53.416;6.730;2022-12-18T07:48:20;35.67;;;20.25;;
51981;SDS011;37998;53.416;6.730;2022-12-18T07:50:46;36.70;;;20.35;;
51981;SDS011;37998;53.416;6.730;2022-12-18T07:53:11;40.97;;;21.52;;
51981;SDS011;37998;53.416;6.730;2022-12-18T07:55:37;36.92;;;21.25;;
51981;SDS011;37998;53.416;6.730;2022-12-18T07:58:03;37.80;;;21.55;;
51981;SDS011;37998;53.416;6.730;2022-12-18T08:00:29;40.03;;;22.35;;
51981;SDS011;37998;53.416;6.730;2022-12-18T08:02:56;34.88;;;20.52;;
51981;SDS011;37998;53.416;6.730;2022-12-18T08:05:22;35.28;;;21.30;;
51981;SDS011;37998;53.416;6.730;2022-12-18T08:07:48;40.35;;;21.30;;
51981;SDS011;37998;53.416;6.730;2022-12-18T08:10:13;35.05;;;20.38;;
51981;SDS011;37998;53.416;6.730;2022-12-18T08:12:39;32.30;;;19.17;;
51981;SDS011;37998;53.416;6.730;2022-12-18T08:15:05;34.63;;;20.40;;
51981;SDS011;37998;53.416;6.730;2022-12-18T08:17:31;37.55;;;20.67;;
51981;SDS011;37998;53.416;6.730;2022-12-18T08:19:57;34.72;;;20.83;;
51981;SDS011;37998;53.416;6.730;2022-12-18T08:22:22;35.53;;;20.90;;
51981;SDS011;37998;53.416;6.730;2022-12-18T08:24:48;37.42;;;20.92;;
51981;SDS011;37998;53.416;6.730;2022-12-18T08:27:14;36.70;;;20.33;;
51981;SDS011;37998;53.416;6.730;2022-12-18T08:29:39;38.38;;;20.08;;
51981;SDS011;37998;53.416;6.730;2022-12-18T08:32:05;36.78;;;20.65;;
51981;SDS011;37998;53.416;6.730;2022-12-18T08:34:31;35.05;;;20.23;;
51981;SDS011;37998;53.416;6.730;2022-12-18T08:36:56;35.53;;;19.77;;
51981;SDS011;37998;53.416;6.730;2022-12-18T08:39:22;34.30;;;20.13;;
51981;SDS011;37998;53.416;6.730;2022-12-18T08:41:48;37.72;;;21.50;;
51981;SDS011;37998;53.416;6.730;2022-12-18T08:44:33;31.95;;;19.52;;
51981;SDS011;37998;53.416;6.730;2022-12-18T08:47:06;31.27;;;19.20;;
51981;SDS011;37998;53.416;6.730;2022-12-18T08:49:33;32.33;;;20.33;;
51981;SDS011;37998;53.416;6.730;2022-12-18T08:51:59;31.65;;;19.05;;
51981;SDS011;37998;53.416;6.730;2022-12-18T08:54:26;30.38;;;19.05;;
51981;SDS011;37998;53.416;6.730;2022-12-18T08:56:51;33.20;;;18.88;;
51981;SDS011;37998;53.416;6.730;2022-12-18T08:59:18;28.60;;;19.05;;
51981;SDS011;37998;53.416;6.730;2022-12-18T09:01:44;30.88;;;19.20;;
51981;SDS011;37998;53.416;6.730;2022-12-18T09:04:10;27.38;;;18.20;;
51981;SDS011;37998;53.416;6.730;2022-12-18T09:06:37;28.77;;;18.20;;
51981;SDS011;37998;53.416;6.730;2022-12-18T09:09:03;30.25;;;19.10;;
51981;SDS011;37998;53.416;6.730;2022-12-18T09:11:30;28.65;;;18.27;;
51981;SDS011;37998;53.416;6.730;2022-12-18T09:13:56;32.25;;;17.75;;
51981;SDS011;37998;53.416;6.730;2022-12-18T09:16:23;27.52;;;18.15;;
51981;SDS011;37998;53.416;6.730;2022-12-18T09:18:50;27.15;;;18.38;;
51981;SDS011;37998;53.416;6.730;2022-12-18T09:21:17;31.42;;;18.33;;
51981;SDS011;37998;53.416;6.730;2022-12-18T09:23:54;27.45;;;17.70;;
51981;SDS011;37998;53.416;6.730;2022-12-18T09:26:21;28.15;;;18.48;;
51981;SDS011;37998;53.416;6.730;2022-12-18T09:28:47;27.33;;;17.15;;
51981;SDS011;37998;53.416;6.730;2022-12-18T09:31:13;30.70;;;17.17;;
51981;SDS011;37998;53.416;6.730;2022-12-18T09:33:39;27.75;;;17.17;;
51981;SDS011;37998;53.416;6.730;2022-12-18T09:36:06;25.25;;;16.10;;
51981;SDS011;37998;53.416;6.730;2022-12-18T09:38:33;25.33;;;15.85;;
51981;SDS011;37998;53.416;6.730;2022-12-18T09:41:04;26.02;;;16.55;;
51981;SDS011;37998;53.416;6.730;2022-12-18T09:43:41;23.63;;;16.20;;
51981;SDS011;37998;53.416;6.730;2022-12-18T09:46:15;26.92;;;15.48;;
51981;SDS011;37998;53.416;6.730;2022-12-18T09:48:49;24.35;;;16.20;;
51981;SDS011;37998;53.416;6.730;2022-12-18T09:51:32;26.65;;;16.25;;
51981;SDS011;37998;53.416;6.730;2022-12-18T09:54:03;22.70;;;15.75;;
51981;SDS011;37998;53.416;6.730;2022-12-18T09:56:35;24.75;;;15.65;;
51981;SDS011;37998;53.416;6.730;2022-12-18T09:59:03;23.00;;;14.10;;
51981;SDS011;37998;53.416;6.730;2022-12-18T10:01:31;25.60;;;14.55;;
51981;SDS011;37998;53.416;6.730;2022-12-18T10:03:57;22.17;;;14.63;;
51981;SDS011;37998;53.416;6.730;2022-12-18T10:09:53;24.60;;;14.48;;
51981;SDS011;37998;53.416;6.730;2022-12-18T10:12:32;20.25;;;14.68;;
51981;SDS011;37998;53.416;6.730;2022-12-18T10:15:21;22.38;;;14.52;;
51981;SDS011;37998;53.416;6.730;2022-12-18T10:17:59;22.02;;;13.13;;
51981;SDS011;37998;53.416;6.730;2022-12-18T10:20:46;20.08;;;12.88;;
51981;SDS011;37998;53.416;6.730;2022-12-18T10:26:14;18.17;;;12.50;;
51981;SDS011;37998;53.416;6.730;2022-12-18T10:28:40;16.67;;;11.73;;
51981;SDS011;37998;53.416;6.730;2022-12-18T10:31:07;17.38;;;11.68;;
51981;SDS011;37998;53.416;6.730;2022-12-18T10:33:41;18.67;;;12.50;;
51981;SDS011;37998;53.416;6.730;2022-12-18T10:36:06;17.98;;;12.50;;
51981;SDS011;37998;53.416;6.730;2022-12-18T10:38:32;18.35;;;12.45;;
51981;SDS011;37998;53.416;6.730;2022-12-18T10:48:34;17.98;;;11.30;;
51981;SDS011;37998;53.416;6.730;2022-12-18T10:51:04;15.38;;;11.10;;
51981;SDS011;37998;53.416;6.730;2022-12-18T10:53:31;14.73;;;10.45;;
51981;SDS011;37998;53.416;6.730;2022-12-18T10:55:59;14.95;;;10.40;;
51981;SDS011;37998;53.416;6.730;2022-12-18T10:58:33;17.83;;;10.15;;
51981;SDS011;37998;53.416;6.730;2022-12-18T11:01:02;19.27;;;11.35;;
51981;SDS011;37998;53.416;6.730;2022-12-18T11:03:35;15.68;;;10.15;;
51981;SDS011;37998;53.416;6.730;2022-12-18T11:08:41;14.50;;;9.98;;
51981;SDS011;37998;53.416;6.730;2022-12-18T11:11:21;14.07;;;10.00;;
51981;SDS011;37998;53.416;6.730;2022-12-18T11:16:26;15.32;;;9.48;;
51981;SDS011;37998;53.416;6.730;2022-12-18T11:18:53;13.85;;;9.38;;
51981;SDS011;37998;53.416;6.730;2022-12-18T11:21:20;13.93;;;10.02;;
51981;SDS011;37998;53.416;6.730;2022-12-18T11:23:52;17.17;;;9.48;;
51981;SDS011;37998;53.416;6.730;2022-12-18T11:26:19;13.98;;;9.20;;
51981;SDS011;37998;53.416;6.730;2022-12-18T11:28:52;13.40;;;8.15;;
51981;SDS011;37998;53.416;6.730;2022-12-18T11:31:32;12.63;;;8.88;;
51981;SDS011;37998;53.416;6.730;2022-12-18T11:37:09;15.80;;;8.05;;
51981;SDS011;37998;53.416;6.730;2022-12-18T11:45:02;12.68;;;7.93;;
51981;SDS011;37998;53.416;6.730;2022-12-18T11:47:39;11.07;;;8.60;;
51981;SDS011;37998;53.416;6.730;2022-12-18T11:50:22;12.90;;;9.13;;
51981;SDS011;37998;53.416;6.730;2022-12-18T11:52:50;9.57;;;8.35;;
51981;SDS011;37998;53.416;6.730;2022-12-18T11:55:24;13.10;;;8.82;;
51981;SDS011;37998;53.416;6.730;2022-12-18T12:00:39;12.38;;;9.15;;
51981;SDS011;37998;53.416;6.730;2022-12-18T12:26:57;12.65;;;8.20;;
51981;SDS011;37998;53.416;6.730;2022-12-18T12:40:48;13.10;;;7.82;;
51981;SDS011;37998;53.416;6.730;2022-12-18T12:43:24;11.38;;;7.75;;
51981;SDS011;37998;53.416;6.730;2022-12-18T12:51:08;10.65;;;7.55;;
51981;SDS011;37998;53.416;6.730;2022-12-18T12:53:37;13.45;;;8.05;;
51981;SDS011;37998;53.416;6.730;2022-12-18T12:56:04;10.60;;;7.35;;
51981;SDS011;37998;53.416;6.730;2022-12-18T12:59:21;9.80;;;6.53;;
51981;SDS011;37998;53.416;6.730;2022-12-18T13:01:42;10.05;;;6.88;;
51981;SDS011;37998;53.416;6.730;2022-12-18T13:09:14;12.50;;;6.85;;
51981;SDS011;37998;53.416;6.730;2022-12-18T13:11:41;9.85;;;7.05;;
51981;SDS011;37998;53.416;6.730;2022-12-18T13:19:48;9.13;;;6.72;;
51981;SDS011;37998;53.416;6.730;2022-12-18T13:22:30;8.93;;;6.60;;
51981;SDS011;37998;53.416;6.730;2022-12-18T13:25:00;8.88;;;6.82;;
51981;SDS011;37998;53.416;6.730;2022-12-18T13:35:39;11.10;;;7.03;;
51981;SDS011;37998;53.416;6.730;2022-12-18T13:38:23;10.70;;;8.13;;
51981;SDS011;37998;53.416;6.730;2022-12-18T13:46:24;11.85;;;7.10;;
51981;SDS011;37998;53.416;6.730;2022-12-18T13:48:56;12.85;;;7.53;;
51981;SDS011;37998;53.416;6.730;2022-12-18T13:51:24;12.18;;;7.50;;
51981;SDS011;37998;53.416;6.730;2022-12-18T13:53:55;10.00;;;7.70;;
51981;SDS011;37998;53.416;6.730;2022-12-18T13:56:25;12.18;;;8.65;;
51981;SDS011;37998;53.416;6.730;2022-12-18T14:01:58;11.90;;;7.15;;
51981;SDS011;37998;53.416;6.730;2022-12-18T14:04:31;10.70;;;7.72;;
51981;SDS011;37998;53.416;6.730;2022-12-18T14:07:01;9.50;;;7.43;;
51981;SDS011;37998;53.416;6.730;2022-12-18T14:09:52;10.57;;;7.63;;
51981;SDS011;37998;53.416;6.730;2022-12-18T14:12:24;10.82;;;8.40;;
51981;SDS011;37998;53.416;6.730;2022-12-18T14:15:22;11.35;;;8.45;;
51981;SDS011;37998;53.416;6.730;2022-12-18T14:17:49;12.25;;;9.05;;
51981;SDS011;37998;53.416;6.730;2022-12-18T14:20:27;13.93;;;8.70;;
51981;SDS011;37998;53.416;6.730;2022-12-18T14:22:55;15.32;;;10.20;;
51981;SDS011;37998;53.416;6.730;2022-12-18T14:25:26;15.63;;;10.35;;
51981;SDS011;37998;53.416;6.730;2022-12-18T14:28:04;14.13;;;9.30;;
51981;SDS011;37998;53.416;6.730;2022-12-18T14:30:51;13.95;;;10.30;;
51981;SDS011;37998;53.416;6.730;2022-12-18T14:33:19;15.95;;;10.15;;
51981;SDS011;37998;53.416;6.730;2022-12-18T14:41:02;14.68;;;9.38;;
51981;SDS011;37998;53.416;6.730;2022-12-18T14:43:31;18.67;;;12.95;;
51981;SDS011;37998;53.416;6.730;2022-12-18T14:46:02;16.20;;;11.80;;
51981;SDS011;37998;53.416;6.730;2022-12-18T14:48:35;19.40;;;10.90;;
51981;SDS011;37998;53.416;6.730;2022-12-18T14:53:46;16.58;;;11.32;;
51981;SDS011;37998;53.416;6.730;2022-12-18T14:56:18;13.77;;;10.48;;
51981;SDS011;37998;53.416;6.730;2022-12-18T14:58:59;16.80;;;10.95;;
51981;SDS011;37998;53.416;6.730;2022-12-18T15:01:30;14.75;;;10.48;;
51981;SDS011;37998;53.416;6.730;2022-12-18T15:04:02;13.30;;;10.27;;
51981;SDS011;37998;53.416;6.730;2022-12-18T15:06:34;19.65;;;10.98;;
51981;SDS011;37998;53.416;6.730;2022-12-18T15:09:21;17.20;;;12.02;;
51981;SDS011;37998;53.416;6.730;2022-12-18T15:11:49;21.08;;;17.25;;
51981;SDS011;37998;53.416;6.730;2022-12-18T15:14:22;14.32;;;10.27;;
51981;SDS011;37998;53.416;6.730;2022-12-18T15:16:52;15.23;;;10.95;;
51981;SDS011;37998;53.416;6.730;2022-12-18T15:19:20;14.07;;;10.95;;
51981;SDS011;37998;53.416;6.730;2022-12-18T15:21:47;14.98;;;10.50;;
51981;SDS011;37998;53.416;6.730;2022-12-18T15:24:21;17.08;;;11.68;;
51981;SDS011;37998;53.416;6.730;2022-12-18T15:26:51;16.77;;;11.23;;
51981;SDS011;37998;53.416;6.730;2022-12-18T15:29:18;14.70;;;10.95;;
51981;SDS011;37998;53.416;6.730;2022-12-18T15:31:57;15.68;;;10.68;;
51981;SDS011;37998;53.416;6.730;2022-12-18T15:34:24;13.70;;;10.07;;
51981;SDS011;37998;53.416;6.730;2022-12-18T15:36:51;16.20;;;10.75;;
51981;SDS011;37998;53.416;6.730;2022-12-18T15:39:17;16.35;;;10.82;;
51981;SDS011;37998;53.416;6.730;2022-12-18T15:41:43;15.60;;;11.38;;
51981;SDS011;37998;53.416;6.730;2022-12-18T15:44:28;16.60;;;11.25;;
51981;SDS011;37998;53.416;6.730;2022-12-18T15:46:54;21.33;;;11.48;;
51981;SDS011;37998;53.416;6.730;2022-12-18T15:49:21;16.60;;;12.40;;
51981;SDS011;37998;53.416;6.730;2022-12-18T15:51:51;15.77;;;11.43;;
51981;SDS011;37998;53.416;6.730;2022-12-18T15:54:19;17.33;;;11.90;;
51981;SDS011;37998;53.416;6.730;2022-12-18T15:57:07;18.38;;;11.05;;
51981;SDS011;37998;53.416;6.730;2022-12-18T15:59:50;16.25;;;10.57;;
51981;SDS011;37998;53.416;6.730;2022-12-18T16:02:18;14.40;;;10.65;;
51981;SDS011;37998;53.416;6.730;2022-12-18T16:04:44;17.85;;;10.73;;
51981;SDS011;37998;53.416;6.730;2022-12-18T16:07:11;12.18;;;9.00;;
51981;SDS011;37998;53.416;6.730;2022-12-18T16:09:37;12.48;;;9.00;;
51981;SDS011;37998;53.416;6.730;2022-12-18T16:12:03;14.10;;;9.18;;
51981;SDS011;37998;53.416;6.730;2022-12-18T16:14:31;14.05;;;9.32;;
51981;SDS011;37998;53.416;6.730;2022-12-18T16:17:05;12.13;;;8.70;;
51981;SDS011;37998;53.416;6.730;2022-12-18T16:19:34;13.13;;;9.57;;
51981;SDS011;37998;53.416;6.730;2022-12-18T16:21:59;12.32;;;9.20;;
51981;SDS011;37998;53.416;6.730;2022-12-18T16:24:26;13.13;;;9.07;;
51981;SDS011;37998;53.416;6.730;2022-12-18T16:26:55;12.02;;;9.18;;
51981;SDS011;37998;53.416;6.730;2022-12-18T16:29:21;12.13;;;8.70;;
51981;SDS011;37998;53.416;6.730;2022-12-18T16:31:51;11.95;;;7.97;;
51981;SDS011;37998;53.416;6.730;2022-12-18T16:34:19;12.52;;;8.68;;
51981;SDS011;37998;53.416;6.730;2022-12-18T16:36:51;13.65;;;8.13;;
51981;SDS011;37998;53.416;6.730;2022-12-18T16:39:18;11.57;;;8.13;;
51981;SDS011;37998;53.416;6.730;2022-12-18T16:41:44;11.10;;;8.07;;
51981;SDS011;37998;53.416;6.730;2022-12-18T16:44:09;13.57;;;8.15;;
51981;SDS011;37998;53.416;6.730;2022-12-18T16:46:36;12.65;;;7.85;;
51981;SDS011;37998;53.416;6.730;2022-12-18T16:49:02;9.60;;;7.57;;
51981;SDS011;37998;53.416;6.730;2022-12-18T16:51:28;12.90;;;8.43;;
51981;SDS011;37998;53.416;6.730;2022-12-18T16:53:54;11.13;;;7.80;;
51981;SDS011;37998;53.416;6.730;2022-12-18T16:56:21;9.75;;;7.32;;
51981;SDS011;37998;53.416;6.730;2022-12-18T16:58:53;11.43;;;8.35;;
51981;SDS011;37998;53.416;6.730;2022-12-18T17:01:20;12.90;;;8.43;;
51981;SDS011;37998;53.416;6.730;2022-12-18T17:03:52;12.10;;;8.20;;